Time;durP1;ratioP1;P1;durP2;ratioP2;P2;SDS_P1;SDS_P2;PMS_P1;PMS_P2;Temp;Humidity;BMP_temperature;BMP_pressure;BME280_temperature;BME280_humidity;BME280_pressure;Samples;Min_cycle;Max_cycle;Signal;HPM_P1;HPM_P2
2024/02/20 00:00:33;;;;;;;8.90;5.50;;;8.70;99.90;;;;;;2055973;28;20038;-71
2024/02/20 00:01:34;;;;;;;8.90;5.03;;;8.80;99.90;;;;;;2057672;28;20062;-71
2024/02/20 00:02:35;;;;;;;10.18;5.55;;;8.80;99.90;;;;;;2061075;28;20104;-71
2024/02/20 00:03:36;;;;;;;10.55;5.53;;;8.80;99.90;;;;;;2060617;28;20117;-71
2024/02/20 00:04:36;;;;;;;8.63;5.25;;;8.70;99.90;;;;;;2060033;28;20497;-72
2024/02/20 00:05:37;;;;;;;9.50;5.55;;;8.80;99.90;;;;;;2060193;28;20019;-73
2024/02/20 00:06:38;;;;;;;10.15;5.55;;;8.80;99.90;;;;;;2059427;28;20034;-72
2024/02/20 00:07:39;;;;;;;12.52;5.90;;;8.80;99.90;;;;;;2059528;28;20400;-72
2024/02/20 00:08:40;;;;;;;8.98;5.68;;;8.80;99.90;;;;;;2059112;28;20030;-72
2024/02/20 00:09:40;;;;;;;10.25;5.35;;;8.80;99.90;;;;;;2059689;28;20034;-72
2024/02/20 00:10:41;;;;;;;9.27;5.18;;;8.70;99.90;;;;;;2056772;28;20414;-72
2024/02/20 00:11:43;;;;;;;9.02;5.00;;;8.80;99.90;;;;;;2060166;28;20026;-72
2024/02/20 00:12:44;;;;;;;8.65;4.97;;;8.80;99.90;;;;;;2057875;28;20030;-72
2024/02/20 00:13:45;;;;;;;8.27;4.90;;;8.80;99.90;;;;;;2060054;28;20053;-72
2024/02/20 00:14:45;;;;;;;7.20;4.97;;;8.80;99.90;;;;;;2059482;28;20117;-72
2024/02/20 00:15:46;;;;;;;9.27;5.10;;;8.80;99.90;;;;;;2059498;28;20680;-72
2024/02/20 00:16:47;;;;;;;9.82;5.35;;;8.80;99.90;;;;;;2059337;28;20041;-72
2024/02/20 00:17:47;;;;;;;7.32;5.30;;;8.80;99.90;;;;;;2059885;28;20037;-72
2024/02/20 00:18:50;;;;;;;8.95;5.40;;;8.80;99.90;;;;;;2060143;28;20089;-72
2024/02/20 00:19:50;;;;;;;8.98;5.15;;;8.80;99.90;;;;;;2059671;28;20052;-72
2024/02/20 00:20:51;;;;;;;11.15;5.00;;;8.80;99.90;;;;;;2060341;28;20034;-72
2024/02/20 00:21:51;;;;;;;8.68;5.30;;;8.80;99.90;;;;;;2056235;28;20068;-72
2024/02/20 00:22:52;;;;;;;12.18;5.55;;;8.80;99.90;;;;;;2059831;28;20030;-72
2024/02/20 00:23:52;;;;;;;7.35;5.00;;;8.80;99.90;;;;;;2058989;28;20695;-73
2024/02/20 00:24:53;;;;;;;10.07;5.30;;;8.90;99.90;;;;;;2058084;28;20117;-72
2024/02/20 00:25:54;;;;;;;6.88;5.00;;;8.90;99.90;;;;;;2059558;28;20034;-72
2024/02/20 00:26:54;;;;;;;7.85;5.25;;;8.90;99.90;;;;;;2058553;28;20035;-72
2024/02/20 00:27:55;;;;;;;9.88;4.97;;;8.90;99.90;;;;;;2060219;28;20015;-72
2024/02/20 00:28:56;;;;;;;8.15;5.10;;;8.90;99.90;;;;;;2059308;28;20023;-71
2024/02/20 00:29:56;;;;;;;9.77;5.40;;;8.90;99.90;;;;;;2059321;28;20130;-71
2024/02/20 00:30:57;;;;;;;10.20;5.20;;;8.90;99.90;;;;;;2058032;28;20480;-70
2024/02/20 00:31:57;;;;;;;10.35;5.40;;;8.90;99.90;;;;;;2056799;28;20039;-72
2024/02/20 00:32:58;;;;;;;9.23;5.18;;;8.90;99.90;;;;;;2059651;28;20026;-71
2024/02/20 00:34:02;;;;;;;8.63;5.20;;;8.90;99.90;;;;;;2060080;28;20022;-73
2024/02/20 00:35:04;;;;;;;8.93;5.30;;;8.90;99.90;;;;;;2056060;28;20027;-71
2024/02/20 00:36:08;;;;;;;9.32;4.68;;;8.90;99.90;;;;;;2055380;28;20546;-72
2024/02/20 00:37:09;;;;;;;8.95;4.80;;;9.00;99.90;;;;;;2060765;28;20099;-71
2024/02/20 00:38:10;;;;;;;6.65;4.97;;;9.00;99.90;;;;;;2056203;28;20015;-71
2024/02/20 00:39:12;;;;;;;7.25;4.97;;;9.00;99.90;;;;;;2058991;28;20042;-70
2024/02/20 00:40:13;;;;;;;8.85;4.90;;;8.90;99.90;;;;;;2059883;28;20039;-71
2024/02/20 00:41:13;;;;;;;8.88;4.80;;;8.90;99.90;;;;;;2060170;28;20089;-71
2024/02/20 00:42:14;;;;;;;7.63;4.63;;;8.90;99.90;;;;;;2060945;28;20084;-70
2024/02/20 00:43:14;;;;;;;8.75;4.90;;;8.90;99.90;;;;;;2059344;28;20030;-71
2024/02/20 00:44:15;;;;;;;8.13;4.70;;;8.90;99.90;;;;;;2060174;28;20030;-70
2024/02/20 00:45:16;;;;;;;7.40;4.55;;;8.90;99.90;;;;;;2059179;28;20034;-71
2024/02/20 00:46:21;;;;;;;8.63;4.97;;;8.90;99.90;;;;;;2057953;28;20043;-73
2024/02/20 00:47:21;;;;;;;8.70;4.90;;;8.90;99.90;;;;;;2060189;28;20045;-71
2024/02/20 00:48:22;;;;;;;8.13;5.00;;;9.00;99.90;;;;;;2061131;28;20395;-70
2024/02/20 00:49:23;;;;;;;7.57;4.97;;;9.00;99.90;;;;;;2059783;28;20042;-72
2024/02/20 00:50:24;;;;;;;10.55;4.72;;;8.90;99.90;;;;;;2055263;28;20038;-70
2024/02/20 00:51:24;;;;;;;8.25;5.10;;;9.00;99.90;;;;;;2057955;28;20030;-71
2024/02/20 00:52:25;;;;;;;8.75;4.80;;;9.00;99.90;;;;;;2058406;28;20065;-71
2024/02/20 00:53:26;;;;;;;7.68;4.72;;;9.00;99.90;;;;;;2058090;28;20129;-72
2024/02/20 00:54:27;;;;;;;7.95;4.40;;;9.00;99.90;;;;;;2058677;28;20553;-71
2024/02/20 00:55:27;;;;;;;8.32;4.80;;;8.90;99.90;;;;;;2058925;28;20100;-72
2024/02/20 00:56:28;;;;;;;8.57;4.43;;;8.90;99.90;;;;;;2059410;28;20030;-71
2024/02/20 00:57:29;;;;;;;7.05;4.55;;;8.90;99.90;;;;;;2059146;28;20083;-71
2024/02/20 00:58:29;;;;;;;9.32;4.63;;;8.90;99.90;;;;;;2058748;28;20038;-71
2024/02/20 00:59:30;;;;;;;7.60;4.30;;;8.90;99.90;;;;;;2060156;28;20045;-72
2024/02/20 01:00:30;;;;;;;8.05;4.40;;;8.90;99.90;;;;;;2060030;28;20053;-71
2024/02/20 01:01:31;;;;;;;7.95;4.50;;;8.90;99.90;;;;;;2047834;28;20031;-72
2024/02/20 01:02:31;;;;;;;7.03;4.38;;;8.90;99.90;;;;;;2042640;28;20038;-73
2024/02/20 01:03:32;;;;;;;6.80;4.38;;;8.90;99.90;;;;;;2057888;28;20250;-73
2024/02/20 01:04:32;;;;;;;10.90;4.60;;;8.90;99.90;;;;;;2053871;28;20030;-72
2024/02/20 01:05:33;;;;;;;9.02;4.45;;;8.90;99.90;;;;;;2058707;28;20559;-72
2024/02/20 01:06:36;;;;;;;8.45;4.90;;;8.80;99.90;;;;;;2059429;28;20080;-72
2024/02/20 01:07:37;;;;;;;9.20;4.82;;;8.80;99.90;;;;;;2060015;28;20040;-73
2024/02/20 01:08:39;;;;;;;7.97;4.80;;;8.80;99.90;;;;;;2060655;28;20488;-73
2024/02/20 01:09:40;;;;;;;9.68;4.93;;;8.80;99.90;;;;;;2056287;28;20030;-73
2024/02/20 01:10:40;;;;;;;9.35;4.97;;;8.80;99.90;;;;;;2055948;28;20129;-72
2024/02/20 01:11:42;;;;;;;8.40;5.20;;;8.80;99.90;;;;;;2058917;28;20500;-72
2024/02/20 01:12:43;;;;;;;7.95;4.85;;;8.80;99.90;;;;;;2055397;28;20034;-72
2024/02/20 01:13:43;;;;;;;8.63;4.75;;;8.80;99.90;;;;;;2055634;28;20034;-71
2024/02/20 01:14:44;;;;;;;8.10;5.10;;;8.80;99.90;;;;;;2059178;28;20121;-71
2024/02/20 01:15:45;;;;;;;9.02;5.03;;;8.80;99.90;;;;;;2057914;28;20034;-71
2024/02/20 01:16:46;;;;;;;11.13;4.85;;;8.80;99.90;;;;;;2060180;28;20556;-72
2024/02/20 01:17:46;;;;;;;6.25;4.55;;;8.80;99.90;;;;;;2060038;28;20129;-72
2024/02/20 01:18:47;;;;;;;9.68;5.10;;;8.80;99.90;;;;;;2059740;28;20469;-72
2024/02/20 01:19:47;;;;;;;6.47;4.88;;;8.80;99.90;;;;;;2055900;28;20591;-72
2024/02/20 01:20:48;;;;;;;8.55;5.07;;;8.80;99.90;;;;;;2052406;28;20544;-71
2024/02/20 01:21:49;;;;;;;8.27;5.20;;;8.80;99.90;;;;;;2059621;28;20034;-72
2024/02/20 01:22:50;;;;;;;10.98;5.30;;;8.80;99.90;;;;;;2059371;28;20034;-71
2024/02/20 01:23:51;;;;;;;9.23;5.40;;;8.80;99.90;;;;;;2059334;28;20117;-72
2024/02/20 01:24:51;;;;;;;8.85;5.28;;;8.80;99.90;;;;;;2061158;28;20358;-72
2024/02/20 01:25:52;;;;;;;9.30;5.35;;;8.80;99.90;;;;;;2061831;28;20034;-72
2024/02/20 01:26:54;;;;;;;9.25;5.20;;;8.80;99.90;;;;;;2059884;28;20030;-71
2024/02/20 01:27:54;;;;;;;9.13;5.53;;;8.80;99.90;;;;;;2060837;28;20092;-71
2024/02/20 01:28:56;;;;;;;8.82;5.45;;;8.80;99.90;;;;;;2062386;28;20026;-71
2024/02/20 01:29:56;;;;;;;10.35;5.40;;;8.80;99.90;;;;;;2057038;28;20027;-72
2024/02/20 01:30:57;;;;;;;10.38;5.65;;;8.80;99.90;;;;;;2058600;28;20050;-73
2024/02/20 01:31:57;;;;;;;9.50;5.63;;;8.80;99.90;;;;;;2060203;28;20056;-72
2024/02/20 01:32:58;;;;;;;9.70;5.80;;;8.80;99.90;;;;;;2060802;28;20035;-71
2024/02/20 01:33:59;;;;;;;10.68;5.65;;;8.80;99.90;;;;;;2060277;28;20076;-71
2024/02/20 01:34:59;;;;;;;9.95;5.57;;;8.90;99.90;;;;;;2061356;28;20088;-72
2024/02/20 01:36:00;;;;;;;8.98;5.40;;;8.90;99.90;;;;;;2057751;28;20457;-71
2024/02/20 01:37:00;;;;;;;9.63;5.80;;;8.90;99.90;;;;;;2060939;28;20126;-72
2024/02/20 01:38:01;;;;;;;7.95;5.20;;;8.90;99.90;;;;;;2061044;28;20022;-72
2024/02/20 01:39:02;;;;;;;9.65;5.57;;;8.90;99.90;;;;;;2061245;28;20393;-72
2024/02/20 01:40:03;;;;;;;8.38;5.65;;;8.90;99.90;;;;;;2061141;28;20125;-77
2024/02/20 01:41:03;;;;;;;9.65;5.90;;;8.90;99.90;;;;;;2060790;28;20026;-79
2024/02/20 01:42:04;;;;;;;9.95;5.80;;;8.90;99.90;;;;;;2057524;28;20030;-77
2024/02/20 01:43:06;;;;;;;8.95;5.63;;;8.90;99.90;;;;;;2060732;28;20750;-79
2024/02/20 01:44:07;;;;;;;10.25;6.22;;;8.80;99.90;;;;;;2061931;28;20134;-78
2024/02/20 01:45:08;;;;;;;11.10;6.38;;;8.80;99.90;;;;;;2061596;28;20034;-79
2024/02/20 01:46:09;;;;;;;10.65;6.30;;;8.80;99.90;;;;;;2058962;28;20034;-79
2024/02/20 01:47:10;;;;;;;10.05;6.20;;;8.80;99.90;;;;;;2060527;28;20029;-78
2024/02/20 01:48:10;;;;;;;9.88;6.05;;;8.80;99.90;;;;;;2061310;28;20493;-78
2024/02/20 01:49:11;;;;;;;8.90;6.10;;;8.80;99.90;;;;;;2060941;28;20485;-78
2024/02/20 01:50:12;;;;;;;12.25;6.15;;;8.80;99.90;;;;;;2058446;28;20033;-78
2024/02/20 01:51:12;;;;;;;10.40;6.25;;;8.80;99.90;;;;;;2059734;28;20153;-72
2024/02/20 01:52:14;;;;;;;10.55;6.25;;;8.70;99.90;;;;;;2061423;28;20034;-79
2024/02/20 01:53:15;;;;;;;11.23;6.60;;;8.80;99.90;;;;;;2060771;28;20181;-72
2024/02/20 01:54:16;;;;;;;14.57;7.00;;;8.80;99.90;;;;;;2058351;28;20203;-69
2024/02/20 01:55:18;;;;;;;9.70;6.50;;;8.80;99.90;;;;;;2052451;28;20077;-77
2024/02/20 01:56:19;;;;;;;11.52;6.32;;;8.80;99.90;;;;;;2060350;28;20061;-77
2024/02/20 01:57:19;;;;;;;10.35;6.40;;;8.70;99.90;;;;;;2060735;28;20030;-77
2024/02/20 01:58:20;;;;;;;12.93;6.80;;;8.80;99.90;;;;;;2060822;28;20396;-78
2024/02/20 01:59:21;;;;;;;9.98;6.95;;;8.70;99.90;;;;;;2061564;28;20040;-78
2024/02/20 02:00:22;;;;;;;12.48;6.95;;;8.70;99.90;;;;;;2060553;28;20034;-77
2024/02/20 02:01:25;;;;;;;10.88;6.80;;;8.70;99.90;;;;;;2061513;28;20030;-79
2024/02/20 02:02:26;;;;;;;11.32;6.68;;;8.70;99.90;;;;;;2060849;28;20618;-77
2024/02/20 02:03:27;;;;;;;9.98;6.70;;;8.70;99.90;;;;;;2060839;28;20054;-78
2024/02/20 02:04:28;;;;;;;11.88;7.43;;;8.70;99.90;;;;;;2057449;28;20374;-75
2024/02/20 02:05:28;;;;;;;14.88;7.00;;;8.70;99.90;;;;;;2054294;28;20061;-79
2024/02/20 02:06:30;;;;;;;11.85;6.97;;;8.70;99.90;;;;;;2061968;28;20031;-78
2024/02/20 02:07:30;;;;;;;11.80;6.90;;;8.70;99.90;;;;;;2057860;28;20912;-78
2024/02/20 02:08:31;;;;;;;11.20;6.63;;;8.70;99.90;;;;;;2061207;28;20100;-78
2024/02/20 02:09:32;;;;;;;11.18;6.78;;;8.70;99.90;;;;;;2054148;28;20394;-78
2024/02/20 02:10:32;;;;;;;10.77;6.80;;;8.70;99.90;;;;;;2059704;28;20868;-78
2024/02/20 02:11:39;;;;;;;11.25;6.75;;;8.80;99.90;;;;;;2062334;28;20113;-78
2024/02/20 02:12:40;;;;;;;13.20;6.95;;;8.70;99.90;;;;;;2058177;28;20027;-78
2024/02/20 02:13:40;;;;;;;11.05;7.30;;;8.80;99.90;;;;;;2062167;28;20113;-78
2024/02/20 02:14:45;;;;;;;11.93;6.72;;;8.80;99.90;;;;;;2062488;28;20050;-78
2024/02/20 02:15:47;;;;;;;9.30;6.55;;;8.80;99.90;;;;;;2061108;28;20116;-79
2024/02/20 02:16:47;;;;;;;12.32;6.72;;;8.80;99.90;;;;;;2062466;28;20026;-79
2024/02/20 02:17:48;;;;;;;9.13;6.35;;;8.80;99.90;;;;;;2062090;28;20021;-76
2024/02/20 02:18:50;;;;;;;15.65;7.28;;;8.80;99.90;;;;;;2059788;28;20038;-77
2024/02/20 02:19:51;;;;;;;11.05;7.05;;;8.80;99.90;;;;;;2060639;28;20034;-78
2024/02/20 02:20:51;;;;;;;10.02;6.38;;;8.80;99.90;;;;;;2062332;28;20553;-78
2024/02/20 02:21:52;;;;;;;12.55;6.97;;;8.70;99.90;;;;;;2060774;28;20988;-79
2024/02/20 02:22:52;;;;;;;8.55;6.30;;;8.70;99.90;;;;;;2061439;28;20042;-77
2024/02/20 02:23:53;;;;;;;9.38;6.25;;;8.70;99.90;;;;;;2061979;28;20069;-78
2024/02/20 02:24:53;;;;;;;9.55;6.35;;;8.80;99.90;;;;;;2061270;28;20018;-78
2024/02/20 02:25:54;;;;;;;12.02;6.53;;;8.80;99.90;;;;;;2062265;28;20486;-77
2024/02/20 02:26:54;;;;;;;11.70;6.68;;;8.80;99.90;;;;;;2065237;28;20023;-79
2024/02/20 02:27:55;;;;;;;10.30;6.28;;;8.70;99.90;;;;;;2065913;28;20705;-77
2024/02/20 02:28:56;;;;;;;11.43;6.45;;;8.70;99.90;;;;;;2064766;28;20089;-77
2024/02/20 02:29:56;;;;;;;9.68;6.65;;;8.80;99.90;;;;;;2064293;28;20038;-79
2024/02/20 02:30:57;;;;;;;10.80;6.88;;;8.70;99.90;;;;;;2067053;28;20018;-76
2024/02/20 02:31:58;;;;;;;15.43;6.95;;;8.80;99.90;;;;;;2064209;28;20026;-77
2024/02/20 02:32:58;;;;;;;12.27;6.68;;;8.70;99.90;;;;;;2059238;28;20023;-75
2024/02/20 02:33:59;;;;;;;10.60;6.90;;;8.70;99.90;;;;;;2064164;28;20030;-78
2024/02/20 02:35:00;;;;;;;12.40;6.57;;;8.80;99.90;;;;;;2065129;28;20031;-78
2024/02/20 02:36:01;;;;;;;10.05;6.70;;;8.70;99.90;;;;;;2060829;28;20030;-78
2024/02/20 02:37:02;;;;;;;10.18;6.47;;;8.70;99.90;;;;;;2055287;28;20093;-78
2024/02/20 02:38:03;;;;;;;9.20;6.30;;;8.70;99.90;;;;;;2061232;28;20018;-78
2024/02/20 02:39:03;;;;;;;10.85;6.63;;;8.70;99.90;;;;;;2057054;28;20536;-78
2024/02/20 02:40:05;;;;;;;10.65;6.22;;;8.70;99.90;;;;;;2053164;28;20039;-78
2024/02/20 02:41:05;;;;;;;11.63;6.75;;;8.70;99.90;;;;;;2060950;28;20057;-78
2024/02/20 02:42:06;;;;;;;10.60;6.70;;;8.70;99.90;;;;;;2058203;28;20504;-78
2024/02/20 02:43:06;;;;;;;12.35;7.05;;;8.70;99.90;;;;;;2061160;28;20057;-79
2024/02/20 02:44:07;;;;;;;10.43;6.13;;;8.70;99.90;;;;;;2061585;28;20022;-80
2024/02/20 02:45:08;;;;;;;11.68;6.22;;;8.70;99.90;;;;;;2060553;28;20529;-79
2024/02/20 02:46:11;;;;;;;11.18;6.35;;;8.70;99.90;;;;;;2054513;28;20222;-79
2024/02/20 02:47:12;;;;;;;11.43;6.57;;;8.70;99.90;;;;;;2061203;28;20105;-78
2024/02/20 02:48:12;;;;;;;13.52;6.75;;;8.70;99.90;;;;;;2061824;28;20116;-79
2024/02/20 02:49:13;;;;;;;12.43;6.68;;;8.70;99.90;;;;;;2060912;28;20030;-77
2024/02/20 02:50:13;;;;;;;10.93;6.80;;;8.70;99.90;;;;;;2060770;28;20039;-77
2024/02/20 02:51:17;;;;;;;10.82;6.90;;;8.70;99.90;;;;;;2060288;28;20030;-78
2024/02/20 02:52:18;;;;;;;10.80;6.30;;;8.70;99.90;;;;;;2056634;28;20030;-78
2024/02/20 02:53:21;;;;;;;9.60;6.45;;;8.70;99.90;;;;;;2058773;28;20042;-79
2024/02/20 02:54:25;;;;;;;12.55;7.00;;;8.70;99.90;;;;;;2059711;28;20091;-78
2024/02/20 02:55:26;;;;;;;10.55;6.60;;;8.70;99.90;;;;;;2060993;28;20022;-77
2024/02/20 02:56:28;;;;;;;11.75;7.07;;;8.70;99.90;;;;;;2061219;28;20361;-77
2024/02/20 02:57:29;;;;;;;12.60;7.22;;;8.70;99.90;;;;;;2062069;28;20049;-77
2024/02/20 02:58:30;;;;;;;12.70;7.15;;;8.70;99.90;;;;;;2060236;28;20030;-77
2024/02/20 02:59:30;;;;;;;12.77;6.75;;;8.70;99.90;;;;;;2057940;28;20023;-77
2024/02/20 03:00:31;;;;;;;13.02;7.15;;;8.70;99.90;;;;;;2059538;28;20676;-77
2024/02/20 03:01:32;;;;;;;11.23;6.93;;;8.70;99.90;;;;;;2057041;28;20033;-77
2024/02/20 03:02:32;;;;;;;13.27;7.18;;;8.70;99.90;;;;;;2060800;28;20026;-77
2024/02/20 03:03:33;;;;;;;13.38;7.13;;;8.70;99.90;;;;;;2058007;28;20052;-78
2024/02/20 03:04:34;;;;;;;11.77;7.32;;;8.70;99.90;;;;;;2056530;28;20031;-77
2024/02/20 03:05:37;;;;;;;12.13;7.35;;;8.70;99.90;;;;;;2061340;28;20099;-77
2024/02/20 03:06:40;;;;;;;11.90;7.47;;;8.70;99.90;;;;;;2057566;28;20042;-77
2024/02/20 03:07:40;;;;;;;11.50;7.20;;;8.70;99.90;;;;;;2061817;28;20018;-77
2024/02/20 03:08:47;;;;;;;11.18;7.25;;;8.70;99.90;;;;;;2061036;28;20118;-78
2024/02/20 03:09:48;;;;;;;10.95;7.18;;;8.70;99.90;;;;;;2060834;28;20034;-78
2024/02/20 03:10:48;;;;;;;11.07;7.13;;;8.70;99.90;;;;;;2061136;28;20102;-77
2024/02/20 03:11:49;;;;;;;10.60;7.35;;;8.70;99.90;;;;;;2060603;28;20504;-78
2024/02/20 03:12:50;;;;;;;12.10;7.68;;;8.70;99.90;;;;;;2061481;28;20485;-77
2024/02/20 03:13:50;;;;;;;15.60;7.82;;;8.70;99.90;;;;;;2060452;28;20030;-77
2024/02/20 03:14:52;;;;;;;12.30;7.13;;;8.70;99.90;;;;;;2060058;28;20552;-77
2024/02/20 03:15:53;;;;;;;12.07;7.28;;;8.70;99.90;;;;;;2061263;28;20030;-78
2024/02/20 03:16:53;;;;;;;13.50;7.18;;;8.70;99.90;;;;;;2059470;28;20038;-78
2024/02/20 03:17:54;;;;;;;11.95;7.43;;;8.70;99.90;;;;;;2051487;28;20018;-77
2024/02/20 03:18:54;;;;;;;11.07;7.35;;;8.70;99.90;;;;;;2054777;28;20052;-78
2024/02/20 03:19:56;;;;;;;13.60;7.30;;;8.70;99.90;;;;;;2061049;28;20014;-78
2024/02/20 03:20:58;;;;;;;11.02;7.13;;;8.70;99.90;;;;;;2059975;28;20018;-77
2024/02/20 03:21:58;;;;;;;11.40;7.15;;;8.70;99.90;;;;;;2059017;28;20525;-77
2024/02/20 03:22:59;;;;;;;12.32;7.20;;;8.60;99.90;;;;;;2059616;28;20027;-78
2024/02/20 03:24:00;;;;;;;11.05;7.00;;;8.60;99.90;;;;;;2054627;28;20440;-78
2024/02/20 03:25:00;;;;;;;13.30;7.50;;;8.70;99.90;;;;;;2059955;28;20026;-78
2024/02/20 03:26:01;;;;;;;11.77;7.20;;;8.60;99.90;;;;;;2060451;28;20125;-78
2024/02/20 03:27:03;;;;;;;13.82;7.82;;;8.60;99.90;;;;;;2058923;28;20488;-79
2024/02/20 03:28:06;;;;;;;13.25;7.55;;;8.60;99.90;;;;;;2060310;28;20040;-78
2024/02/20 03:29:09;;;;;;;13.48;7.93;;;8.60;99.90;;;;;;2060180;28;20053;-78
2024/02/20 03:30:10;;;;;;;12.57;7.50;;;8.60;99.90;;;;;;2060779;28;20073;-78
2024/02/20 03:31:11;;;;;;;11.40;7.55;;;8.60;99.90;;;;;;2055039;28;20022;-78
2024/02/20 03:32:11;;;;;;;13.88;7.60;;;8.60;99.90;;;;;;2060722;28;20723;-78
2024/02/20 03:33:12;;;;;;;13.40;7.68;;;8.60;99.90;;;;;;2056331;28;20034;-78
2024/02/20 03:34:12;;;;;;;12.18;7.40;;;8.60;99.90;;;;;;2061063;28;20026;-78
2024/02/20 03:35:20;;;;;;;12.63;8.02;;;8.60;99.90;;;;;;2060116;28;20475;-78
2024/02/20 03:36:21;;;;;;;13.05;8.18;;;8.60;99.90;;;;;;2057115;28;20073;-78
2024/02/20 03:37:21;;;;;;;12.60;7.60;;;8.60;99.90;;;;;;2059635;28;20041;-78
2024/02/20 03:38:24;;;;;;;12.65;8.20;;;8.60;99.90;;;;;;2059083;28;20045;-77
2024/02/20 03:39:25;;;;;;;14.85;7.82;;;8.60;99.90;;;;;;2060350;28;20038;-76
2024/02/20 03:40:27;;;;;;;11.70;7.68;;;8.60;99.90;;;;;;2060728;28;20030;-78
2024/02/20 03:41:27;;;;;;;13.65;8.20;;;8.60;99.90;;;;;;2059678;28;20062;-78
2024/02/20 03:42:28;;;;;;;13.75;8.18;;;8.60;99.90;;;;;;2060368;28;20038;-76
2024/02/20 03:43:29;;;;;;;14.13;7.57;;;8.60;99.90;;;;;;2059624;28;20073;-78
2024/02/20 03:44:29;;;;;;;12.27;7.75;;;8.60;99.90;;;;;;2061023;28;20030;-78
2024/02/20 03:45:30;;;;;;;16.00;8.20;;;8.60;99.90;;;;;;2060595;28;20560;-78
2024/02/20 03:46:31;;;;;;;13.15;7.57;;;8.60;99.90;;;;;;2058016;28;20030;-78
2024/02/20 03:47:32;;;;;;;12.73;7.72;;;8.60;99.90;;;;;;2061305;28;20133;-79
2024/02/20 03:48:32;;;;;;;13.63;8.82;;;8.60;99.90;;;;;;2060916;28;20034;-78
2024/02/20 03:49:33;;;;;;;16.13;7.82;;;8.60;99.90;;;;;;2060956;28;20092;-78
2024/02/20 03:50:34;;;;;;;14.20;8.30;;;8.60;99.90;;;;;;2060400;28;20441;-78
2024/02/20 03:51:34;;;;;;;14.30;7.85;;;8.60;99.90;;;;;;2059921;28;20101;-78
2024/02/20 03:52:35;;;;;;;12.75;7.72;;;8.60;99.90;;;;;;2055773;28;20058;-79
2024/02/20 03:53:35;;;;;;;11.88;8.00;;;8.60;99.90;;;;;;2054907;28;20039;-78
2024/02/20 03:54:36;;;;;;;12.77;8.18;;;8.60;99.90;;;;;;2060790;28;20100;-79
2024/02/20 03:55:36;;;;;;;13.93;8.30;;;8.60;99.90;;;;;;2057315;28;20066;-79
2024/02/20 03:56:37;;;;;;;15.93;8.40;;;8.60;99.90;;;;;;2060746;28;20045;-78
2024/02/20 03:57:37;;;;;;;14.15;8.70;;;8.60;99.90;;;;;;2057922;28;20106;-78
2024/02/20 03:58:39;;;;;;;15.18;8.52;;;8.50;99.90;;;;;;2057080;28;20071;-78
2024/02/20 03:59:39;;;;;;;15.45;8.82;;;8.50;99.90;;;;;;2051485;28;20089;-79
2024/02/20 04:00:40;;;;;;;15.02;8.77;;;8.40;99.90;;;;;;2057630;28;20030;-79
2024/02/20 04:01:40;;;;;;;14.65;8.85;;;8.40;99.90;;;;;;2056921;28;20026;-78
2024/02/20 04:02:42;;;;;;;15.30;9.13;;;8.40;99.90;;;;;;2058099;28;20034;-79
2024/02/20 04:03:43;;;;;;;16.10;8.98;;;8.40;99.90;;;;;;2060537;28;20038;-77
2024/02/20 04:04:44;;;;;;;16.50;9.18;;;8.30;99.90;;;;;;2061337;28;20065;-77
2024/02/20 04:05:46;;;;;;;16.00;8.93;;;8.30;99.90;;;;;;2060624;28;20489;-78
2024/02/20 04:06:47;;;;;;;16.42;9.40;;;8.30;99.90;;;;;;2061875;28;20035;-79
2024/02/20 04:07:47;;;;;;;17.95;9.98;;;8.30;99.90;;;;;;2060942;28;20593;-79
2024/02/20 04:08:48;;;;;;;16.08;9.45;;;8.30;99.90;;;;;;2060842;28;20034;-79
2024/02/20 04:09:48;;;;;;;19.10;9.75;;;8.30;99.90;;;;;;2061611;28;20437;-78
2024/02/20 04:10:49;;;;;;;18.13;9.68;;;8.30;99.90;;;;;;2060985;28;20393;-79
2024/02/20 04:11:49;;;;;;;17.42;9.57;;;8.30;99.90;;;;;;2061490;28;20049;-80
2024/02/20 04:12:50;;;;;;;16.45;9.70;;;8.20;99.90;;;;;;2060815;28;20077;-79
2024/02/20 04:13:50;;;;;;;17.88;9.68;;;8.20;99.90;;;;;;2060778;28;20103;-79
2024/02/20 04:14:51;;;;;;;15.25;9.45;;;8.20;99.90;;;;;;2060570;28;20022;-78
2024/02/20 04:15:52;;;;;;;19.52;10.27;;;8.20;99.90;;;;;;2059701;28;20438;-77
2024/02/20 04:16:53;;;;;;;16.05;9.35;;;8.20;99.90;;;;;;2060605;28;20188;-78
2024/02/20 04:17:53;;;;;;;17.60;9.52;;;8.20;99.90;;;;;;2056335;28;20038;-78
2024/02/20 04:18:54;;;;;;;20.02;9.75;;;8.20;99.90;;;;;;2061647;28;20471;-78
2024/02/20 04:19:54;;;;;;;16.83;10.15;;;8.20;99.90;;;;;;2056881;28;20615;-78
2024/02/20 04:20:55;;;;;;;17.88;10.23;;;8.20;99.90;;;;;;2056692;28;20677;-78
2024/02/20 04:21:55;;;;;;;16.50;9.73;;;8.20;99.90;;;;;;2060406;28;20729;-78
2024/02/20 04:22:56;;;;;;;16.15;9.07;;;8.20;99.90;;;;;;2060148;28;20034;-77
2024/02/20 04:23:56;;;;;;;19.45;10.32;;;8.20;99.90;;;;;;2052392;28;20050;-78
2024/02/20 04:25:01;;;;;;;16.95;9.55;;;8.20;99.90;;;;;;2058933;28;20436;-77
2024/02/20 04:26:01;;;;;;;16.27;9.63;;;8.20;99.90;;;;;;2060502;28;20039;-78
2024/02/20 04:27:02;;;;;;;15.85;9.68;;;8.10;99.90;;;;;;2060584;28;20066;-77
2024/02/20 04:28:03;;;;;;;16.63;9.82;;;8.20;99.90;;;;;;2059803;28;20081;-78
2024/02/20 04:29:03;;;;;;;17.05;9.60;;;8.10;99.90;;;;;;2052906;28;20033;-77
2024/02/20 04:30:09;;;;;;;18.52;10.00;;;8.10;99.90;;;;;;2059419;28;20022;-77
2024/02/20 04:31:09;;;;;;;16.33;9.55;;;8.10;99.90;;;;;;2055002;28;20378;-78
2024/02/20 04:32:10;;;;;;;18.50;10.63;;;8.10;99.90;;;;;;2058690;28;20030;-77
2024/02/20 04:33:11;;;;;;;18.42;10.20;;;8.20;99.90;;;;;;2059745;28;20034;-78
2024/02/20 04:34:12;;;;;;;18.25;10.85;;;8.20;99.90;;;;;;2060525;28;20145;-77
2024/02/20 04:35:12;;;;;;;21.73;11.27;;;8.20;99.90;;;;;;2060629;28;20030;-78
2024/02/20 04:36:14;;;;;;;19.25;10.57;;;8.20;99.90;;;;;;2060560;28;20069;-78
2024/02/20 04:37:16;;;;;;;18.73;10.00;;;8.20;99.90;;;;;;2060339;28;20035;-77
2024/02/20 04:38:16;;;;;;;19.23;9.93;;;8.10;99.90;;;;;;2060196;28;20758;-78
2024/02/20 04:39:17;;;;;;;18.40;10.07;;;8.20;99.90;;;;;;2060302;28;20057;-77
2024/02/20 04:40:18;;;;;;;18.25;10.02;;;8.10;99.90;;;;;;2060898;28;20129;-78
2024/02/20 04:41:25;;;;;;;17.40;10.05;;;8.10;99.90;;;;;;2061427;28;20038;-77
2024/02/20 04:42:26;;;;;;;18.40;10.35;;;8.20;99.90;;;;;;2054277;28;20121;-77
2024/02/20 04:43:27;;;;;;;16.75;9.93;;;8.20;99.90;;;;;;2059021;28;20404;-78
2024/02/20 04:44:28;;;;;;;17.67;9.93;;;8.20;99.90;;;;;;2060452;28;20450;-79
2024/02/20 04:45:28;;;;;;;16.02;10.23;;;8.20;99.90;;;;;;2061604;28;20035;-78
2024/02/20 04:46:29;;;;;;;15.95;9.75;;;8.20;99.90;;;;;;2060184;28;20038;-78
2024/02/20 04:47:30;;;;;;;16.48;9.07;;;8.20;99.90;;;;;;2060604;28;20062;-77
2024/02/20 04:48:31;;;;;;;15.60;9.88;;;8.20;99.90;;;;;;2059972;28;20027;-78
2024/02/20 04:49:32;;;;;;;15.70;9.57;;;8.20;99.90;;;;;;2059519;28;20552;-78
2024/02/20 04:50:33;;;;;;;14.48;9.35;;;8.20;99.90;;;;;;2061382;28;21100;-78
2024/02/20 04:51:35;;;;;;;13.82;8.73;;;8.20;99.90;;;;;;2054989;28;20038;-78
2024/02/20 04:52:36;;;;;;;14.05;9.43;;;8.20;99.90;;;;;;2060002;28;20030;-78
2024/02/20 04:53:36;;;;;;;16.13;9.35;;;8.30;99.90;;;;;;2060406;28;20026;-78
2024/02/20 04:54:37;;;;;;;15.85;9.05;;;8.30;99.90;;;;;;2059972;28;20073;-79
2024/02/20 04:55:37;;;;;;;16.35;10.02;;;8.20;99.90;;;;;;2055588;28;20534;-79
2024/02/20 04:56:38;;;;;;;17.17;9.23;;;8.30;99.90;;;;;;2058921;28;20492;-79
2024/02/20 04:57:38;;;;;;;15.10;9.40;;;8.20;99.90;;;;;;2059871;28;20636;-78
2024/02/20 04:58:39;;;;;;;14.57;9.02;;;8.30;99.90;;;;;;2067140;28;20037;-79
2024/02/20 04:59:41;;;;;;;16.58;10.20;;;8.20;99.90;;;;;;2058901;28;20105;-78
2024/02/20 05:00:41;;;;;;;17.33;10.10;;;8.20;99.90;;;;;;2060654;28;20076;-79
2024/02/20 05:01:42;;;;;;;15.35;9.85;;;8.30;99.90;;;;;;2062714;28;20444;-78
2024/02/20 05:02:44;;;;;;;15.52;9.88;;;8.20;99.90;;;;;;2061213;28;20046;-78
2024/02/20 05:03:46;;;;;;;16.10;9.50;;;8.20;99.90;;;;;;2060092;28;20700;-78
2024/02/20 05:04:46;;;;;;;15.88;9.18;;;8.30;99.90;;;;;;2061858;28;20022;-79
2024/02/20 05:05:47;;;;;;;14.75;9.07;;;8.30;99.90;;;;;;2061292;28;20110;-78
2024/02/20 05:06:48;;;;;;;17.52;9.95;;;8.20;99.90;;;;;;2058072;28;20036;-77
2024/02/20 05:07:49;;;;;;;14.90;9.52;;;8.20;99.90;;;;;;2061880;28;20029;-78
2024/02/20 05:08:49;;;;;;;15.38;9.40;;;8.20;99.90;;;;;;2061536;28;20030;-78
2024/02/20 05:09:50;;;;;;;19.25;10.07;;;8.20;99.90;;;;;;2060366;28;20026;-77
2024/02/20 05:10:51;;;;;;;15.50;9.48;;;8.20;99.90;;;;;;2057984;28;20177;-78
2024/02/20 05:11:51;;;;;;;15.25;9.10;;;8.30;99.90;;;;;;2061545;28;20727;-77
2024/02/20 05:12:52;;;;;;;16.23;9.40;;;8.30;99.90;;;;;;2062493;28;20665;-78
2024/02/20 05:13:52;;;;;;;16.00;9.52;;;8.20;99.90;;;;;;2062970;28;20058;-80
2024/02/20 05:14:53;;;;;;;15.23;9.13;;;8.20;99.90;;;;;;2062025;28;20039;-78
2024/02/20 05:15:54;;;;;;;15.40;9.40;;;8.20;99.90;;;;;;2062586;28;20023;-78
2024/02/20 05:16:54;;;;;;;14.93;9.10;;;8.20;99.90;;;;;;2062200;28;20038;-78
2024/02/20 05:17:55;;;;;;;17.98;9.65;;;8.20;99.90;;;;;;2061425;28;20105;-78
2024/02/20 05:18:55;;;;;;;15.82;9.15;;;8.20;99.90;;;;;;2061567;28;20548;-78